Wickenby Aerodrome

EGNW · Angleterre, Royaume-Uni

METAR anciennes EGNW · Wickenby Aerodrome

Tu vois ci-dessous les METAR des derniers jours. Sélectionne une année pour parcourir les METAR plus anciens, à partir de l'année 2007.

27 novembre 2022

Temps Code Temps Temp. Vue Base cloud Vent METAR/SPECI
12:50
V
11 °C 10 km+ - 220° 220° 6 kt METAR EGXW 271250Z AUTO 22006KT 9999 NCD 11/09 Q1010
11:50
V
12 °C 10 km+ - 220° 220° 7 kt METAR EGXW 271150Z AUTO 22007KT 9999 FEW140/// 12/10 Q1011
10:50
V
11 °C 10 km+ - 220° 220° 7 kt METAR EGXW 271050Z AUTO 22007KT 9999 FEW130/// 11/10 Q1012
09:50
V
11 °C 10 km+ 20.000 ft 200° 200° 9 kt METAR EGXW 270950Z AUTO 20009KT 9999 FEW140/// BKN200/// 11/10 Q1012
08:50
V
11 °C 10 km+ 13.000 ft 220° 220° 6 kt METAR EGXW 270850Z AUTO 22006KT 9999 BKN130/// 11/09 Q1012
07:50
V
11 °C 10 km+ 14.000 ft 230° 230° 7 kt METAR EGXW 270750Z AUTO 23007KT 9999 FEW006/// SCT023/// BKN140/// 11/10 Q1012 REDZ
06:50
V
11 °C 10 km+ 12.000 ft 220° 220° 8 kt METAR EGXW 270650Z AUTO 22008KT 9999 BKN120/// 11/10 Q1012
05:50
V
11 °C 10 km+ 12.000 ft 200° 200° 10 kt METAR EGXW 270550Z AUTO 20010KT 9999 FEW011/// BKN120/// 11/10 Q1011 REDZ
04:50
M
11 °C 6 km - 200° 200° 14 kt METAR EGXW 270450Z AUTO 20014KT 6000 +DZ FEW009/// SCT031/// 11/10 Q1011
03:50
I
11 °C 10 km+ 900 ft 210° 210° 14 kt METAR EGXW 270350Z AUTO 21014KT 9999 BKN009/// BKN140/// 11/10 Q1011
02:50
I
11 °C 10 km+ 900 ft 190° 190° 17 kt METAR EGXW 270250Z AUTO 19017KT 9999 BKN009/// BKN110/// 11/10 Q1010 RERA
01:50
V
11 °C 10 km+ 5.000 ft 190° 190° 17 kt METAR EGXW 270150Z AUTO 19017KT 9999 -RA SCT010/// BKN050/// 11/10 Q1011
00:50
M
11 °C 10 km+ 1.100 ft 200° 200° 21 kt METAR EGXW 270050Z AUTO 20021KT 9999 -RA BKN011/// BKN019/// 11/10 Q1011

26 novembre 2022

Temps Code Temps Temp. Vue Base cloud Vent METAR/SPECI
23:50
M
11 °C 10 km+ 1.500 ft 190° 190° 23 kt METAR EGXW 262350Z AUTO 19023KT 9999 -RA BKN015/// SCT025/// 11/09 Q1011
22:50
M
11 °C 10 km+ 1.700 ft 180° 180° 20 kt METAR EGXW 262250Z AUTO 18020KT 9999 BKN017/// BKN030/// 11/09 Q1012 REUP
21:50
V
11 °C 10 km+ 4.100 ft 180° 180° 20 kt METAR EGXW 262150Z AUTO 18020KT 9999 SCT019/// SCT036/// BKN041/// 11/08 Q1013
20:50
M
11 °C 10 km+ 1.800 ft 180° 180° 17 kt METAR EGXW 262050Z AUTO 18017KT 9999 BKN018/// BKN042/// 11/08 Q1014
19:50
V
10 °C 10 km+ 4.300 ft 170° 170° 17 kt METAR EGXW 261950Z AUTO 17017KT 9999 SCT016/// BKN043/// BKN140/// 10/08 Q1014 REDZ
18:50
M
10 °C 10 km+ 1.700 ft 170° 170° 16 kt METAR EGXW 261850Z AUTO 17016KT 9999 -DZ BKN017/// SCT050/// 10/08 Q1016
17:50
V
10 °C 10 km+ 5.000 ft 170° 170° 12 kt METAR EGXW 261750Z AUTO 17012KT 9999 OVC050/// 10/08 Q1017 REDZ
16:50
V
10 °C 10 km+ 7.000 ft 170° 170° 14 kt METAR EGXW 261650Z AUTO 17014KT 9999 BKN070/// 10/08 Q1017
15:50
V
10 °C 10 km+ - 170° 170° 12 kt METAR EGXW 261550Z AUTO 17012KT 9999 FEW080/// 10/07 Q1017
14:50
V
11 °C 10 km+ - 180° 180° 13 kt METAR EGXW 261450Z AUTO 18013KT 9999 NCD 11/08 Q1018
13:50
V
10 °C 10 km+ - 180° 180° 13 kt METAR EGXW 261350Z AUTO 18013KT 9999 FEW170/// 10/08 Q1019
12:50
V
10 °C 10 km+ - 180° 180° 14 kt METAR EGXW 261250Z AUTO 18014KT 9999 NCD 10/08 Q1020
11:50
V
10 °C 10 km+ - 180° 180° 16 kt METAR EGXW 261150Z AUTO 18016KT 9999 NCD 10/08 Q1020
10:50
V
10 °C 10 km+ - 200° 200° 17 kt METAR EGXW 261050Z AUTO 20017KT 9999 FEW140/// 10/08 Q1021
09:50
V
9 °C 10 km+ 14.000 ft 190° 190° 15 kt METAR EGXW 260950Z AUTO 19015KT 9999 OVC140/// 09/07 Q1022
08:50
V
8 °C 10 km+ - 200° 200° 13 kt METAR EGXW 260850Z AUTO 20013KT 9999 SCT150/// 08/06 Q1021
07:50
V
8 °C 10 km+ - 200° 200° 12 kt METAR EGXW 260750Z AUTO 20012KT 9999 NCD 08/06 Q1021
06:50
V
8 °C 10 km+ - 200° 200° 14 kt METAR EGXW 260650Z AUTO 20014KT 9999 NCD 08/07 Q1022
05:50
V
8 °C 10 km+ - 200° 200° 11 kt METAR EGXW 260550Z AUTO 20011KT 9999 NCD 08/06 Q1022
04:50
V
8 °C 10 km+ - 200° 200° 14 kt METAR EGXW 260450Z AUTO 20014KT 9999 NCD 08/07 Q1021
03:50
V
8 °C 10 km+ 12.000 ft 190° 190° 10 kt METAR EGXW 260350Z AUTO 19010KT 9999 BKN120/// 08/06 Q1021
02:50
V
8 °C 10 km+ - 210° 210° 10 kt METAR EGXW 260250Z AUTO 21010KT 9999 SCT120/// 08/06 Q1021
01:50
V
9 °C 10 km+ 12.000 ft 220° 220° 10 kt METAR EGXW 260150Z AUTO 22010KT 9999 OVC120/// 09/06 Q1021
00:50
V
8 °C 10 km+ 11.000 ft 220° 220° 12 kt METAR EGXW 260050Z AUTO 22012KT 9999 BKN110/// BKN190/// 08/06 Q1021

25 novembre 2022

Temps Code Temps Temp. Vue Base cloud Vent METAR/SPECI
23:50
V
8 °C 10 km+ 9.000 ft 220° 220° 11 kt METAR EGXW 252350Z AUTO 22011KT 9999 OVC090/// 08/06 Q1021
22:50
V
8 °C 10 km+ 11.000 ft 230° 230° 12 kt METAR EGXW 252250Z AUTO 23012KT 9999 OVC110/// 08/06 Q1021
21:50
V
8 °C 10 km+ 18.000 ft 210° 210° 8 kt METAR EGXW 252150Z AUTO 21008KT 9999 BKN180/// 08/06 Q1020
20:50
V
8 °C 10 km+ - 200° 200° 7 kt METAR EGXW 252050Z AUTO 20007KT 9999 FEW170/// 08/06 Q1020
19:50
V
9 °C 10 km+ 22.000 ft 220° 220° 9 kt METAR EGXW 251950Z AUTO 22009KT 9999 OVC220/// 09/06 Q1019
18:50
V
9 °C 10 km+ 24.000 ft 220° 220° 10 kt METAR EGXW 251850Z AUTO 22010KT 9999 SCT050/// BKN240/// 09/06 Q1018
17:50
V
9 °C 10 km+ - 220° 220° 14 kt METAR EGXW 251750Z AUTO 22014KT 9999 FEW050/// 09/06 Q1018
16:50
V
9 °C 10 km+ - 220° 220° 13 kt METAR EGXW 251650Z AUTO 22013KT 9999 NCD 09/06 Q1017
15:50
V
10 °C 10 km+ - 220° 220° 13 kt METAR EGXW 251550Z 22013KT 9999 FEW040 10/06 Q1016 NOSIG RMK BLU BLU
15:20
V
10 °C 10 km+ - 230° 230° 10 kt METAR EGXW 251520Z 23010KT 9999 FEW040 10/06 Q1015 NOSIG RMK BLU BLU
14:52
V
10 °C 10 km+ - 230° 230° 9 kt METAR EGXW 251452Z 23009KT 9999 FEW040 10/06 Q1015 NOSIG RMK BLU BLU
14:50
V
10 °C 10 km+ - 230° 230° 9 kt METAR EGXW 251450Z AUTO 23009KT 9999 NCD 10/06 Q1015
14:20
V
11 °C 10 km+ - 230° 230° 9 kt METAR EGXW 251420Z 23009KT 9999 FEW040 11/06 Q1015 NOSIG RMK BLU BLU
13:50
V
11 °C 10 km+ - 230° 230° 11 kt METAR EGXW 251350Z 23011KT 9999 FEW040 11/05 Q1014 NOSIG RMK BLU BLU
13:20
V
11 °C 10 km+ - 230° 230° 11 kt METAR EGXW 251320Z 23011KT 9999 FEW030 11/05 Q1014 NOSIG RMK BLU BLU
12:54
V
11 °C 10 km+ - 230° 230° 11 kt METAR EGXW 251254Z 23011KT CAVOK 11/06 Q1014 NOSIG RMK BLU BLU
12:50
V
11 °C 10 km+ - 230° 230° 11 kt METAR EGXW 251250Z AUTO 23011KT 9999 NCD 11/06 Q1014
12:19
V
10 °C 10 km+ - 240° 240° 11 kt METAR EGXW 251219Z 24011KT 9999 FEW030 10/06 Q1013 NOSIG RMK BLU BLU
11:50
V
10 °C 10 km+ - 240° 240° 13 kt METAR EGXW 251150Z 24013KT 9999 FEW030 10/06 Q1013 NOSIG RMK BLU BLU
11:21
V
10 °C 10 km+ - 230° 230° 9 kt METAR EGXW 251121Z 23009KT CAVOK 10/06 Q1012 NOSIG RMK BLU BLU
10:50
V
9 °C 10 km+ - 230° 230° 9 kt METAR EGXW 251050Z 23009KT 9999 FEW030 09/06 Q1012 NOSIG RMK BLU BLU
10:24
V
8 °C 10 km+ - 240° 240° 8 kt METAR EGXW 251024Z 24008KT CAVOK 08/06 Q1012 NOSIG RMK BLU BLU
09:50
V
7 °C 10 km+ - 230° 230° 10 kt METAR EGXW 250950Z 23010KT CAVOK 07/05 Q1011 NOSIG RMK BLU BLU

Nous et des tiers suivons ton comportement Internet sur notre site Web à l'aide de cookies. Si tu continues, nous supposons que tu es d'accord avec notre Politique en matière de cookies.